Time;durP1;ratioP1;P1;durP2;ratioP2;P2;SDS_P1;SDS_P2;PMS_P1;PMS_P2;Temp;Humidity;BMP_temperature;BMP_pressure;BME280_temperature;BME280_humidity;BME280_pressure;Samples;Min_cycle;Max_cycle;Signal;HPM_P1;HPM_P2
2022/04/30 00:01:09;;;;;;;11.20;8.30;;;14.30;99.90;;;;;;5001531;28;20942;-88
2022/04/30 00:03:38;;;;;;;11.10;8.37;;;14.30;99.90;;;;;;5007716;28;20458;-86
2022/04/30 00:06:07;;;;;;;12.10;7.73;;;14.20;99.90;;;;;;5005624;28;20514;-88
2022/04/30 00:08:35;;;;;;;8.90;8.00;;;14.20;99.90;;;;;;5002039;28;20440;-88
2022/04/30 00:11:04;;;;;;;11.10;7.80;;;14.10;99.90;;;;;;5001112;28;20414;-88
2022/04/30 00:13:31;;;;;;;8.50;7.60;;;14.00;99.90;;;;;;4995835;28;20806;-88
2022/04/30 00:15:59;;;;;;;8.20;7.27;;;14.00;99.90;;;;;;4997003;28;20424;-89
2022/04/30 00:18:28;;;;;;;9.37;8.20;;;14.00;99.90;;;;;;4995536;28;20419;-89
2022/04/30 00:21:06;;;;;;;10.00;8.43;;;14.00;99.90;;;;;;4996455;28;20422;-88
2022/04/30 00:23:35;;;;;;;11.13;8.80;;;13.90;99.90;;;;;;4998428;28;20453;-88
2022/04/30 00:26:04;;;;;;;9.60;8.43;;;14.00;99.90;;;;;;5000806;28;20456;-87
2022/04/30 00:28:34;;;;;;;8.60;7.40;;;13.90;99.90;;;;;;4999074;28;20769;-89
2022/04/30 00:31:02;;;;;;;10.90;7.53;;;14.00;99.90;;;;;;5012187;28;20447;-89
2022/04/30 00:33:31;;;;;;;15.10;8.30;;;14.00;99.90;;;;;;4996637;28;20485;-88
2022/04/30 00:36:16;;;;;;;9.10;7.10;;;13.90;99.90;;;;;;4997341;28;20469;-88
2022/04/30 00:38:47;;;;;;;10.60;8.40;;;13.90;99.90;;;;;;4997011;28;20506;-88
2022/04/30 00:41:14;;;;;;;10.80;9.20;;;13.90;99.90;;;;;;4995991;28;20425;-87
2022/04/30 00:43:45;;;;;;;11.70;8.10;;;13.90;99.90;;;;;;4997256;28;20449;-87
2022/04/30 00:46:13;;;;;;;9.93;7.80;;;13.80;99.90;;;;;;5013407;28;20411;-87
2022/04/30 00:48:45;;;;;;;12.57;7.97;;;13.80;99.90;;;;;;5017060;28;20460;-87
2022/04/30 00:51:14;;;;;;;8.83;7.93;;;13.90;99.90;;;;;;5016924;28;20432;-88
2022/04/30 00:53:44;;;;;;;11.87;8.50;;;14.10;99.90;;;;;;5010031;28;20487;-88
2022/04/30 00:56:13;;;;;;;12.13;8.20;;;14.20;99.90;;;;;;5016560;28;20444;-88
2022/04/30 00:58:50;;;;;;;11.60;9.60;;;14.30;99.90;;;;;;5015905;28;20418;-88
2022/04/30 01:01:20;;;;;;;10.03;8.80;;;14.40;99.90;;;;;;5010078;28;20439;-88
2022/04/30 01:03:52;;;;;;;12.80;10.43;;;14.40;99.90;;;;;;5007825;28;20467;-88
2022/04/30 01:06:27;;;;;;;18.20;10.00;;;14.30;99.90;;;;;;5008314;28;20422;-88
2022/04/30 01:08:57;;;;;;;12.50;9.77;;;14.20;99.90;;;;;;5003609;28;20461;-88
2022/04/30 01:11:24;;;;;;;10.93;9.73;;;14.20;99.90;;;;;;5002499;28;20591;-88
2022/04/30 01:13:59;;;;;;;11.70;10.50;;;14.30;99.90;;;;;;4999979;28;21034;-88
2022/04/30 01:16:35;;;;;;;15.93;11.23;;;14.30;99.90;;;;;;5001829;28;20509;-87
2022/04/30 01:19:09;;;;;;;14.60;12.00;;;14.20;99.90;;;;;;5001660;28;20455;-88
2022/04/30 01:21:40;;;;;;;17.13;11.77;;;14.20;99.90;;;;;;5001812;28;20452;-87
2022/04/30 01:24:11;;;;;;;14.87;13.27;;;14.20;99.90;;;;;;5007663;28;20467;-88
2022/04/30 01:26:42;;;;;;;18.30;14.37;;;14.40;99.90;;;;;;5010296;28;20513;-88
2022/04/30 01:29:12;;;;;;;19.70;16.43;;;14.30;99.90;;;;;;5006788;28;20437;-87
2022/04/30 01:37:36;;;;;;;24.03;15.57;;;14.00;99.90;;;;;;5002923;28;20431;-88
2022/04/30 01:40:07;;;;;;;24.20;15.90;;;14.00;99.90;;;;;;5002576;28;20460;-88
2022/04/30 01:42:44;;;;;;;20.77;15.03;;;13.90;99.90;;;;;;5004618;28;20495;-88
2022/04/30 01:45:14;;;;;;;24.73;18.70;;;13.80;99.90;;;;;;5016649;28;20466;-87
2022/04/30 01:47:44;;;;;;;24.83;17.53;;;13.90;99.90;;;;;;5016749;28;20458;-87
2022/04/30 01:50:12;;;;;;;18.63;15.80;;;13.90;99.90;;;;;;5016411;28;20416;-88
2022/04/30 01:52:40;;;;;;;22.27;17.10;;;13.90;99.90;;;;;;5009325;28;20452;-88
2022/04/30 01:55:11;;;;;;;27.87;17.70;;;13.90;99.90;;;;;;5009484;28;20451;-87
2022/04/30 01:57:43;;;;;;;22.70;16.60;;;13.80;99.90;;;;;;5007883;28;20422;-88
2022/04/30 02:00:13;;;;;;;27.60;18.10;;;13.80;99.90;;;;;;5001960;28;20426;-87
2022/04/30 02:02:47;;;;;;;23.80;17.20;;;13.80;99.90;;;;;;5000357;28;20513;-88
2022/04/30 02:05:15;;;;;;;26.50;17.90;;;13.80;99.90;;;;;;5002191;28;20497;-87
2022/04/30 02:07:49;;;;;;;28.43;19.00;;;13.80;99.90;;;;;;5016333;28;20461;-87
2022/04/30 02:10:19;;;;;;;27.53;18.53;;;13.70;99.90;;;;;;5012484;28;20451;-88
2022/04/30 02:12:47;;;;;;;24.80;17.37;;;13.70;99.90;;;;;;5014304;28;20450;-87
2022/04/30 02:15:16;;;;;;;28.77;16.73;;;13.70;99.90;;;;;;5014972;28;20485;-88
2022/04/30 02:17:47;;;;;;;24.90;17.20;;;13.70;99.90;;;;;;5009757;28;20430;-88
2022/04/30 02:20:22;;;;;;;27.03;16.40;;;13.90;99.90;;;;;;5007486;28;20779;-88
2022/04/30 02:22:54;;;;;;;26.20;18.07;;;13.80;99.90;;;;;;5003759;28;20490;-87
2022/04/30 02:25:27;;;;;;;23.97;17.20;;;13.70;99.90;;;;;;5002310;28;20422;-88
2022/04/30 02:27:58;;;;;;;26.07;18.50;;;13.80;99.90;;;;;;4998529;28;20768;-88
2022/04/30 02:30:29;;;;;;;25.40;18.20;;;13.70;99.90;;;;;;5005713;28;20422;-88
2022/04/30 02:32:58;;;;;;;27.87;17.13;;;13.60;99.90;;;;;;5002007;28;20547;-88
2022/04/30 02:35:29;;;;;;;26.10;17.43;;;13.70;99.90;;;;;;4998472;28;20504;-87
2022/04/30 02:37:59;;;;;;;24.20;17.33;;;13.60;99.90;;;;;;5001052;28;20438;-87
2022/04/30 02:40:28;;;;;;;22.43;16.53;;;13.50;99.90;;;;;;5006909;28;20424;-87
2022/04/30 02:43:02;;;;;;;25.60;15.67;;;13.70;99.90;;;;;;5012589;28;20507;-88
2022/04/30 02:45:42;;;;;;;24.33;17.83;;;13.60;99.90;;;;;;5000256;28;20418;-87
2022/04/30 02:48:12;;;;;;;22.20;15.53;;;13.50;99.90;;;;;;5005867;28;20455;-87
2022/04/30 02:50:43;;;;;;;25.63;18.40;;;13.60;99.90;;;;;;5019862;28;20477;-87
2022/04/30 02:53:41;;;;;;;18.10;15.30;;;13.60;99.90;;;;;;5007534;28;20453;-88
2022/04/30 02:56:11;;;;;;;21.60;15.43;;;13.50;99.90;;;;;;4977118;28;20434;-87
2022/04/30 03:01:22;;;;;;;23.00;16.47;;;13.50;99.90;;;;;;5009246;28;20439;-88
2022/04/30 03:03:50;;;;;;;25.00;16.00;;;13.50;99.90;;;;;;5003037;28;20997;-87
2022/04/30 03:06:19;;;;;;;22.23;16.00;;;13.50;99.90;;;;;;5004377;28;20509;-88
2022/04/30 03:08:50;;;;;;;24.70;16.60;;;13.50;99.90;;;;;;5011326;28;20421;-88
2022/04/30 03:11:21;;;;;;;21.97;17.33;;;13.50;99.90;;;;;;5019916;28;20425;-87
2022/04/30 03:13:51;;;;;;;26.07;16.70;;;13.40;99.90;;;;;;5010477;28;20450;-88
2022/04/30 03:21:48;;;;;;;22.63;17.60;;;13.40;99.90;;;;;;5005847;28;20389;-88
2022/04/30 03:24:18;;;;;;;23.00;15.80;;;13.40;99.90;;;;;;5014957;28;20461;-87
2022/04/30 03:26:47;;;;;;;22.47;17.70;;;13.30;99.90;;;;;;5019126;28;20515;-87
2022/04/30 03:29:16;;;;;;;25.90;17.90;;;13.30;99.90;;;;;;5009392;28;20472;-87
2022/04/30 03:31:47;;;;;;;25.63;18.97;;;13.20;99.90;;;;;;5005721;28;20482;-87
2022/04/30 03:34:15;;;;;;;27.53;20.10;;;13.10;99.90;;;;;;5009129;28;20478;-87
2022/04/30 03:36:43;;;;;;;25.33;19.00;;;13.20;99.90;;;;;;5011890;28;20430;-87
2022/04/30 03:39:11;;;;;;;27.73;20.20;;;13.10;99.90;;;;;;5008073;28;20506;-88
2022/04/30 03:41:38;;;;;;;26.53;20.90;;;13.20;99.90;;;;;;5011608;28;20483;-89
2022/04/30 03:44:08;;;;;;;29.07;19.83;;;13.30;99.90;;;;;;5015282;28;20453;-87
2022/04/30 03:46:36;;;;;;;32.00;21.20;;;13.40;99.90;;;;;;5010240;28;20430;-87
2022/04/30 03:49:04;;;;;;;29.00;22.03;;;13.20;99.90;;;;;;5019021;28;20473;-87
2022/04/30 03:51:31;;;;;;;29.37;20.90;;;13.20;99.90;;;;;;5017065;28;20432;-88
2022/04/30 03:53:58;;;;;;;27.30;20.27;;;13.20;99.90;;;;;;4999653;28;20474;-88
2022/04/30 03:56:25;;;;;;;35.60;22.40;;;13.10;99.90;;;;;;4996935;28;20532;-88
2022/04/30 03:58:56;;;;;;;29.57;22.90;;;13.20;99.90;;;;;;4997584;28;20425;-88
2022/04/30 04:01:26;;;;;;;30.30;21.87;;;13.10;99.90;;;;;;4997719;28;20412;-88
2022/04/30 04:03:53;;;;;;;31.80;21.57;;;13.20;99.90;;;;;;4996528;28;20921;-88
2022/04/30 04:06:22;;;;;;;34.87;22.93;;;13.10;99.90;;;;;;4997109;28;20462;-88
2022/04/30 04:08:51;;;;;;;33.20;23.63;;;13.10;99.90;;;;;;4996058;28;20451;-88
2022/04/30 04:11:18;;;;;;;30.97;22.90;;;13.10;99.90;;;;;;4997155;28;20924;-88
2022/04/30 04:19:15;;;;;;;31.33;22.57;;;13.00;99.90;;;;;;5010157;28;20418;-88
2022/04/30 04:21:42;;;;;;;32.80;23.57;;;13.00;99.90;;;;;;4998424;28;20447;-87
2022/04/30 04:26:54;;;;;;;32.37;23.70;;;13.00;99.90;;;;;;4997941;28;20411;-88
2022/04/30 04:29:21;;;;;;;34.13;25.27;;;12.90;99.90;;;;;;5009947;28;20420;-88
2022/04/30 04:31:49;;;;;;;37.33;25.80;;;12.90;99.90;;;;;;5004287;28;20463;-86
2022/04/30 04:34:16;;;;;;;33.20;23.60;;;12.90;99.90;;;;;;5004669;28;20443;-87
2022/04/30 04:36:43;;;;;;;38.23;25.03;;;13.00;99.90;;;;;;5003892;28;20478;-88
2022/04/30 04:39:13;;;;;;;30.63;22.87;;;12.90;99.90;;;;;;5001293;28;20998;-87
2022/04/30 04:41:42;;;;;;;39.00;24.20;;;13.00;99.90;;;;;;5015471;28;20414;-87
2022/04/30 04:44:11;;;;;;;30.77;24.07;;;12.90;99.90;;;;;;5017758;28;20478;-88
2022/04/30 04:46:39;;;;;;;34.17;25.33;;;12.90;99.90;;;;;;5017850;28;20439;-87
2022/04/30 04:49:09;;;;;;;32.73;23.63;;;12.90;99.90;;;;;;5017890;28;20410;-87
2022/04/30 04:51:37;;;;;;;38.30;25.73;;;12.90;99.90;;;;;;5017622;28;20414;-87
2022/04/30 04:54:04;;;;;;;30.10;22.50;;;12.80;99.90;;;;;;5017579;28;20474;-88
2022/04/30 04:56:35;;;;;;;30.90;23.60;;;12.80;99.90;;;;;;5017585;28;20422;-88
2022/04/30 04:59:05;;;;;;;32.47;23.80;;;12.80;99.90;;;;;;5007975;28;20498;-87
2022/04/30 05:01:33;;;;;;;34.80;23.53;;;12.80;99.90;;;;;;4997881;28;20443;-87
2022/04/30 05:04:02;;;;;;;35.17;25.73;;;12.60;99.90;;;;;;4996322;28;20524;-87
2022/04/30 05:06:30;;;;;;;34.10;25.20;;;12.70;99.90;;;;;;4997466;28;20490;-89
2022/04/30 05:08:57;;;;;;;35.50;25.93;;;12.70;99.90;;;;;;4997205;28;20778;-88
2022/04/30 05:11:25;;;;;;;39.60;26.50;;;12.60;99.90;;;;;;4997856;28;20808;-87
2022/04/30 05:13:52;;;;;;;42.73;25.73;;;12.50;99.90;;;;;;5050112;23;21006;-87
2022/04/30 05:16:18;;;;;;;38.87;24.17;;;12.60;99.90;;;;;;5041735;28;20452;-88
2022/04/30 05:18:45;;;;;;;35.27;26.67;;;12.60;99.90;;;;;;5041144;28;20424;-88
2022/04/30 05:21:12;;;;;;;31.90;24.97;;;12.70;99.90;;;;;;5040451;28;20427;-88
2022/04/30 05:23:40;;;;;;;38.47;25.63;;;12.80;99.90;;;;;;5027703;28;20605;-89
2022/04/30 05:26:07;;;;;;;32.07;23.93;;;12.80;99.90;;;;;;5019986;28;20461;-88
2022/04/30 05:28:34;;;;;;;33.80;24.07;;;12.80;99.90;;;;;;5019575;28;20495;-87
2022/04/30 05:31:01;;;;;;;29.70;21.60;;;12.80;99.90;;;;;;5017922;28;20512;-87
2022/04/30 05:33:29;;;;;;;30.00;23.57;;;12.80;99.90;;;;;;5020686;28;20449;-87
2022/04/30 05:35:57;;;;;;;32.07;23.53;;;12.80;99.90;;;;;;5018754;28;20781;-87
2022/04/30 05:38:24;;;;;;;34.00;24.90;;;12.80;99.90;;;;;;5019609;28;20436;-87
2022/04/30 05:40:52;;;;;;;32.97;23.70;;;12.80;99.90;;;;;;5018919;28;20520;-87
2022/04/30 05:43:19;;;;;;;34.33;22.40;;;12.70;99.90;;;;;;5019361;28;20501;-87
2022/04/30 05:45:46;;;;;;;30.10;21.80;;;12.80;99.90;;;;;;5019214;28;20520;-86
2022/04/30 05:48:13;;;;;;;30.63;21.70;;;12.90;99.90;;;;;;5018073;28;20486;-87
2022/04/30 05:50:40;;;;;;;28.50;21.60;;;12.90;99.90;;;;;;5028303;28;20437;-87
2022/04/30 05:53:07;;;;;;;31.87;23.47;;;12.70;99.90;;;;;;5029431;28;21060;-88
2022/04/30 05:55:34;;;;;;;38.07;25.90;;;12.60;99.90;;;;;;5023045;28;20424;-88
2022/04/30 05:58:02;;;;;;;37.87;25.03;;;12.60;99.90;;;;;;5022080;28;20886;-86
2022/04/30 06:00:29;;;;;;;28.87;22.80;;;12.60;99.90;;;;;;5023950;28;20460;-87
2022/04/30 06:02:56;;;;;;;28.07;22.07;;;12.80;99.90;;;;;;5036494;28;20509;-87
2022/04/30 06:05:23;;;;;;;30.30;21.93;;;13.00;99.90;;;;;;5031477;28;20440;-87
2022/04/30 06:07:51;;;;;;;32.40;23.27;;;13.20;99.90;;;;;;5023981;28;20460;-87
2022/04/30 06:10:18;;;;;;;29.70;21.80;;;12.80;99.90;;;;;;5022481;28;20436;-88
2022/04/30 06:12:45;;;;;;;30.03;22.17;;;12.90;99.90;;;;;;5017478;28;20457;-86
2022/04/30 06:15:13;;;;;;;30.30;21.20;;;13.00;99.90;;;;;;5017164;28;20421;-86
2022/04/30 06:17:40;;;;;;;29.23;21.53;;;12.80;99.90;;;;;;5018183;28;20931;-86
2022/04/30 06:20:09;;;;;;;30.80;20.80;;;12.70;99.90;;;;;;5027057;28;20518;-88
2022/04/30 06:22:36;;;;;;;29.93;20.70;;;12.70;99.90;;;;;;5024444;28;20433;-88
2022/04/30 06:25:03;;;;;;;27.77;19.50;;;12.80;99.90;;;;;;5029969;28;20478;-87
2022/04/30 06:27:30;;;;;;;29.97;22.63;;;12.80;99.90;;;;;;5040244;28;20480;-87
2022/04/30 06:29:57;;;;;;;28.60;20.40;;;12.90;99.90;;;;;;5037043;28;20436;-87
2022/04/30 06:32:25;;;;;;;32.30;22.40;;;12.80;99.90;;;;;;5027134;28;20425;-88
2022/04/30 06:34:52;;;;;;;29.87;22.83;;;12.70;99.90;;;;;;5025198;28;20429;-85
2022/04/30 06:37:19;;;;;;;33.63;20.43;;;12.70;99.90;;;;;;5020918;28;20510;-87
2022/04/30 06:39:47;;;;;;;29.80;22.20;;;13.10;99.90;;;;;;5023436;28;20428;-87
2022/04/30 06:42:14;;;;;;;29.97;22.20;;;13.10;99.90;;;;;;5024369;28;20458;-87
2022/04/30 06:44:41;;;;;;;28.80;19.40;;;13.30;99.90;;;;;;5023840;28;20482;-87
2022/04/30 06:47:08;;;;;;;24.83;19.47;;;13.30;99.90;;;;;;5026136;28;20419;-88
2022/04/30 06:49:36;;;;;;;29.43;20.03;;;13.20;99.90;;;;;;5028949;28;20513;-89
2022/04/30 06:52:04;;;;;;;23.80;18.80;;;13.20;99.90;;;;;;5029824;28;20496;-88
2022/04/30 06:57:17;;;;;;;23.97;18.37;;;13.20;99.90;;;;;;5032369;28;20457;-87
2022/04/30 06:59:45;;;;;;;26.13;19.40;;;13.20;99.90;;;;;;5030092;28;20479;-89
2022/04/30 07:02:13;;;;;;;23.53;19.07;;;13.20;99.90;;;;;;5026084;28;20528;-89
2022/04/30 07:04:42;;;;;;;26.00;18.93;;;13.20;99.90;;;;;;5025501;28;20496;-88
2022/04/30 07:07:09;;;;;;;25.80;19.70;;;13.20;99.90;;;;;;5024979;28;20518;-88
2022/04/30 07:09:37;;;;;;;26.93;20.60;;;13.30;99.90;;;;;;5024627;28;20454;-88
2022/04/30 07:12:06;;;;;;;24.70;19.60;;;13.40;99.90;;;;;;5025155;28;20463;-88
2022/04/30 07:14:36;;;;;;;26.13;20.40;;;13.40;99.90;;;;;;5027704;28;20477;-88
2022/04/30 07:17:03;;;;;;;26.07;18.47;;;13.50;99.90;;;;;;5023020;28;20416;-86
2022/04/30 07:19:30;;;;;;;25.13;19.53;;;13.50;99.90;;;;;;5020870;28;20462;-86
2022/04/30 07:21:59;;;;;;;25.20;18.80;;;13.50;99.90;;;;;;5023826;28;20454;-88
2022/04/30 07:24:26;;;;;;;23.57;17.83;;;13.80;99.90;;;;;;5023663;28;20468;-87
2022/04/30 07:26:54;;;;;;;20.17;17.53;;;13.90;99.90;;;;;;5024788;28;20417;-87
2022/04/30 07:29:21;;;;;;;25.13;17.07;;;13.80;99.90;;;;;;5023318;28;20462;-87
2022/04/30 07:31:49;;;;;;;21.67;18.07;;;13.90;99.90;;;;;;5031410;28;20425;-88
2022/04/30 07:34:15;;;;;;;23.53;18.17;;;13.90;99.90;;;;;;5037714;28;20473;-87
2022/04/30 07:36:43;;;;;;;27.30;19.57;;;13.80;99.90;;;;;;5032714;28;20425;-86
2022/04/30 07:39:12;;;;;;;24.90;20.27;;;13.80;99.90;;;;;;5035793;28;20405;-88
2022/04/30 07:41:38;;;;;;;23.30;18.07;;;13.60;99.90;;;;;;5036800;28;20437;-87
2022/04/30 07:44:05;;;;;;;23.50;19.00;;;13.70;99.90;;;;;;5031841;28;20558;-88
2022/04/30 07:46:32;;;;;;;21.97;18.10;;;13.70;99.90;;;;;;5031576;28;20421;-89
2022/04/30 07:49:00;;;;;;;23.93;18.20;;;13.70;99.90;;;;;;5038931;28;20397;-87
2022/04/30 07:51:38;;;;;;;21.90;18.40;;;13.50;99.90;;;;;;5033066;28;20440;-89
2022/04/30 07:54:05;;;;;;;22.77;19.00;;;13.40;99.90;;;;;;5028827;28;20464;-89
2022/04/30 07:56:34;;;;;;;23.03;18.10;;;13.40;99.90;;;;;;5029800;28;20455;-89
2022/04/30 07:59:01;;;;;;;23.40;18.70;;;13.50;99.90;;;;;;5028545;28;20482;-88
2022/04/30 08:01:28;;;;;;;24.30;20.20;;;13.50;99.90;;;;;;5029977;28;20413;-88
2022/04/30 08:03:55;;;;;;;23.37;19.97;;;13.50;99.90;;;;;;5034687;28;20548;-89
2022/04/30 08:06:22;;;;;;;28.60;20.40;;;13.50;99.90;;;;;;5032936;28;20484;-89
2022/04/30 08:08:49;;;;;;;22.90;18.87;;;13.40;99.90;;;;;;5034421;28;20940;-90
2022/04/30 08:11:16;;;;;;;21.90;18.13;;;13.50;99.90;;;;;;5035735;28;20500;-88
2022/04/30 08:13:44;;;;;;;24.00;17.47;;;13.60;99.90;;;;;;5037486;28;20568;-89
2022/04/30 08:16:11;;;;;;;21.10;16.93;;;13.70;99.90;;;;;;5031897;28;20528;-88
2022/04/30 08:18:39;;;;;;;22.57;17.70;;;13.70;99.90;;;;;;5029920;28;20479;-89
2022/04/30 08:21:07;;;;;;;22.57;16.83;;;13.80;99.90;;;;;;5028801;28;20508;-90
2022/04/30 08:23:36;;;;;;;22.00;17.97;;;13.60;99.90;;;;;;5026672;28;20497;-88
2022/04/30 08:26:03;;;;;;;21.10;18.03;;;13.40;99.90;;;;;;5026227;28;20458;-89
2022/04/30 08:28:31;;;;;;;21.30;17.20;;;13.30;99.90;;;;;;5025986;28;20516;-87
2022/04/30 08:30:59;;;;;;;22.50;15.63;;;13.40;99.90;;;;;;5028163;28;20441;-88
2022/04/30 08:33:26;;;;;;;21.00;17.57;;;13.60;99.90;;;;;;5030150;28;20437;-89
2022/04/30 08:35:53;;;;;;;22.63;17.50;;;13.40;99.90;;;;;;5027163;28;20540;-88
2022/04/30 08:38:20;;;;;;;25.00;17.87;;;13.30;99.90;;;;;;5029571;28;20480;-88
2022/04/30 08:40:47;;;;;;;20.23;17.20;;;13.20;99.90;;;;;;5028188;28;20529;-88
2022/04/30 08:43:16;;;;;;;21.70;17.93;;;13.10;99.90;;;;;;5025947;28;20960;-87
2022/04/30 08:45:45;;;;;;;20.57;16.67;;;13.20;99.90;;;;;;5024240;28;20549;-89
2022/04/30 08:48:14;;;;;;;20.70;16.33;;;13.00;99.90;;;;;;5027014;28;20469;-87
2022/04/30 08:50:42;;;;;;;19.13;15.43;;;13.00;99.90;;;;;;5024774;28;20461;-89
2022/04/30 08:53:10;;;;;;;21.40;17.23;;;13.10;99.90;;;;;;5025315;28;20441;-87
2022/04/30 08:55:37;;;;;;;23.10;15.43;;;13.10;99.90;;;;;;5028274;28;20429;-87
2022/04/30 08:58:04;;;;;;;19.87;15.20;;;13.10;99.90;;;;;;5029839;28;20487;-89
2022/04/30 09:00:31;;;;;;;16.80;14.03;;;13.20;99.90;;;;;;5027484;28;21007;-88
2022/04/30 09:03:00;;;;;;;19.33;14.40;;;13.30;99.90;;;;;;5029797;28;20564;-89
2022/04/30 09:05:35;;;;;;;19.03;15.87;;;13.10;99.90;;;;;;5028818;28;20868;-89
2022/04/30 09:08:02;;;;;;;21.33;15.83;;;13.10;99.90;;;;;;5035311;28;20469;-89
2022/04/30 09:10:30;;;;;;;19.43;15.90;;;13.10;99.90;;;;;;5035950;28;20425;-89
2022/04/30 09:13:05;;;;;;;17.80;15.10;;;13.20;99.90;;;;;;5027140;28;20878;-88
2022/04/30 09:15:32;;;;;;;18.27;15.00;;;13.10;99.90;;;;;;5028571;28;20436;-89
2022/04/30 09:18:00;;;;;;;16.57;13.60;;;13.30;99.90;;;;;;5027237;28;20452;-89
2022/04/30 09:20:29;;;;;;;19.20;13.60;;;13.10;99.90;;;;;;5025813;28;20433;-89
2022/04/30 09:22:58;;;;;;;18.43;15.07;;;13.10;99.90;;;;;;5024871;28;20491;-89
2022/04/30 09:25:25;;;;;;;17.30;14.63;;;13.10;99.90;;;;;;5024413;28;20517;-89
2022/04/30 09:27:54;;;;;;;17.50;14.60;;;12.90;99.90;;;;;;5023492;28;20489;-88
2022/04/30 09:30:24;;;;;;;16.83;14.40;;;12.80;99.90;;;;;;5022819;28;20480;-88
2022/04/30 09:33:02;;;;;;;14.97;12.07;;;12.90;99.90;;;;;;5023048;28;20514;-89
2022/04/30 09:38:15;;;;;;;15.93;13.90;;;12.90;99.90;;;;;;5021941;28;20397;-85
2022/04/30 09:40:51;;;;;;;16.33;13.07;;;12.80;99.90;;;;;;5022206;28;20545;-89
2022/04/30 09:43:18;;;;;;;13.10;11.17;;;12.90;99.90;;;;;;5024544;28;20445;-88
2022/04/30 09:45:46;;;;;;;16.87;13.30;;;13.10;99.90;;;;;;5025274;28;20569;-87
2022/04/30 09:53:58;;;;;;;12.40;10.33;;;13.00;99.90;;;;;;5022014;28;20420;-90
2022/04/30 09:56:34;;;;;;;11.97;10.10;;;13.30;99.90;;;;;;5031553;28;20400;-89
2022/04/30 09:59:04;;;;;;;11.90;10.50;;;13.20;99.90;;;;;;5035782;28;20401;-89
2022/04/30 10:01:34;;;;;;;12.90;9.20;;;13.40;99.90;;;;;;5031609;28;20413;-88
2022/04/30 10:04:05;;;;;;;14.20;10.17;;;13.60;99.90;;;;;;5029130;28;20440;-88
2022/04/30 10:06:33;;;;;;;12.20;9.80;;;13.70;99.90;;;;;;5030645;28;20400;-89
2022/04/30 10:12:31;;;;;;;12.87;9.73;;;13.60;99.90;;;;;;5041275;28;20392;-82
2022/04/30 10:15:09;;;;;;;10.17;8.60;;;13.60;99.90;;;;;;5036785;28;20453;-87
2022/04/30 10:17:38;;;;;;;15.97;10.37;;;13.50;99.90;;;;;;5040447;28;20414;-89
2022/04/30 10:20:11;;;;;;;12.73;10.37;;;13.50;99.90;;;;;;5041041;28;20436;-87
2022/04/30 10:22:49;;;;;;;12.60;11.03;;;13.50;99.90;;;;;;5031371;28;20451;-86
2022/04/30 10:25:16;;;;;;;12.00;10.10;;;13.60;99.90;;;;;;5023544;28;20537;-86
2022/04/30 10:27:46;;;;;;;13.93;11.63;;;13.90;99.90;;;;;;5031016;28;20459;-87
2022/04/30 10:30:23;;;;;;;16.20;13.00;;;13.90;99.90;;;;;;5039184;28;20436;-87
2022/04/30 10:32:59;;;;;;;16.43;12.27;;;13.80;99.90;;;;;;5030059;28;20471;-88
2022/04/30 10:35:31;;;;;;;12.27;10.70;;;13.80;99.90;;;;;;5029318;28;20451;-89
2022/04/30 10:38:10;;;;;;;11.93;10.37;;;13.70;99.90;;;;;;5028688;28;20492;-88
2022/04/30 10:40:42;;;;;;;14.77;11.70;;;13.70;99.90;;;;;;5029182;28;20473;-89
2022/04/30 10:43:18;;;;;;;12.47;11.17;;;13.90;99.90;;;;;;5027809;28;20466;-89
2022/04/30 10:45:45;;;;;;;14.17;11.50;;;14.10;99.90;;;;;;5027548;28;20561;-89
2022/04/30 10:48:12;;;;;;;12.13;10.30;;;14.30;99.90;;;;;;5029643;28;20521;-88
2022/04/30 10:50:40;;;;;;;12.63;9.57;;;14.50;99.90;;;;;;5026820;28;20909;-88
2022/04/30 10:53:09;;;;;;;10.03;7.97;;;14.40;99.90;;;;;;5027260;28;20528;-89
2022/04/30 10:55:39;;;;;;;11.47;8.47;;;14.60;99.90;;;;;;5027234;28;20500;-89
2022/04/30 10:58:06;;;;;;;11.10;7.23;;;14.50;99.90;;;;;;5029075;28;20464;-89
2022/04/30 11:00:35;;;;;;;13.13;10.43;;;14.30;99.90;;;;;;5027595;28;20451;-88
2022/04/30 11:03:10;;;;;;;9.40;8.27;;;14.10;99.90;;;;;;5027617;28;20460;-88
2022/04/30 11:05:37;;;;;;;8.67;6.60;;;14.00;99.90;;;;;;5027704;28;20488;-89
2022/04/30 11:08:04;;;;;;;8.63;7.67;;;13.80;99.90;;;;;;5026275;28;20515;-90
2022/04/30 11:10:32;;;;;;;8.47;6.70;;;13.60;99.90;;;;;;5027266;28;20433;-87
2022/04/30 11:13:06;;;;;;;8.40;6.70;;;13.40;99.90;;;;;;5025531;28;20468;-87
2022/04/30 11:15:34;;;;;;;7.57;5.07;;;13.30;99.90;;;;;;5026372;28;20433;-88
2022/04/30 11:18:01;;;;;;;7.20;5.40;;;13.30;99.90;;;;;;5028145;28;20512;-88
2022/04/30 11:20:29;;;;;;;7.43;5.17;;;13.20;99.90;;;;;;5029052;28;20908;-88
2022/04/30 11:23:19;;;;;;;7.10;5.30;;;13.30;99.90;;;;;;5064180;23;20498;-89
2022/04/30 11:29:09;;;;;;;7.13;5.03;;;13.60;99.90;;;;;;5017720;28;20458;-87
2022/04/30 11:31:53;;;;;;;8.27;5.87;;;13.80;99.90;;;;;;5020204;28;20503;-88
2022/04/30 11:34:24;;;;;;;7.23;5.23;;;14.00;99.90;;;;;;5012001;28;20509;-87
2022/04/30 11:36:53;;;;;;;5.93;5.10;;;14.20;99.90;;;;;;5014799;28;20465;-88
2022/04/30 11:39:22;;;;;;;6.30;4.80;;;14.20;99.90;;;;;;5007382;28;20455;-88
2022/04/30 11:41:52;;;;;;;6.53;4.83;;;14.20;99.90;;;;;;5002816;28;20437;-88
2022/04/30 11:44:20;;;;;;;6.50;5.53;;;13.90;99.90;;;;;;5005145;28;20440;-88
2022/04/30 11:47:07;;;;;;;6.23;4.70;;;13.90;99.90;;;;;;5002993;28;20453;-87
2022/04/30 11:49:34;;;;;;;6.40;5.30;;;14.10;99.90;;;;;;5002777;28;20571;-88
2022/04/30 11:52:01;;;;;;;6.50;5.00;;;14.20;99.90;;;;;;5001215;28;20454;-87
2022/04/30 11:54:30;;;;;;;6.30;5.50;;;14.20;99.90;;;;;;5003749;28;20434;-88
2022/04/30 11:57:02;;;;;;;6.03;5.30;;;14.20;99.90;;;;;;5007137;28;20471;-87
2022/04/30 11:59:30;;;;;;;6.80;5.63;;;14.10;99.90;;;;;;5014868;28;20422;-87
2022/04/30 12:02:06;;;;;;;7.60;5.97;;;14.20;99.90;;;;;;5016068;28;20434;-88
2022/04/30 12:04:41;;;;;;;8.13;5.53;;;14.30;99.90;;;;;;5008580;28;20394;-88
2022/04/30 12:07:35;;;;;;;7.10;5.50;;;14.20;99.90;;;;;;5006475;28;20489;-88
2022/04/30 12:10:25;;;;;;;;;;;;;;;;;;;;;
2022/04/30 12:26:58;;;;;;;7.10;5.70;;;13.70;99.90;;;;;;5009097;28;20437;-87
2022/04/30 12:29:26;;;;;;;7.30;5.70;;;13.50;99.90;;;;;;5005380;28;20463;-87
2022/04/30 12:31:58;;;;;;;7.90;6.40;;;13.70;99.90;;;;;;5005156;28;20465;-88
2022/04/30 12:34:50;;;;;;;7.10;5.30;;;13.70;99.90;;;;;;5006453;28;20445;-87
2022/04/30 12:37:35;;;;;;;6.23;4.30;;;13.60;99.90;;;;;;5009089;28;20408;-87
2022/04/30 12:40:21;;;;;;;8.47;5.97;;;13.30;99.90;;;;;;5014304;28;20447;-88
2022/04/30 12:42:51;;;;;;;6.93;6.07;;;13.30;99.90;;;;;;5007912;28;20437;-87
2022/04/30 12:45:18;;;;;;;7.10;5.47;;;13.40;99.90;;;;;;5015060;28;20434;-87
2022/04/30 12:47:45;;;;;;;6.03;4.50;;;13.60;99.90;;;;;;5008851;28;21068;-88
2022/04/30 12:50:14;;;;;;;5.90;4.70;;;13.70;99.90;;;;;;5009339;28;20429;-87
2022/04/30 12:52:51;;;;;;;6.40;4.47;;;13.50;99.90;;;;;;5010481;28;20490;-88
2022/04/30 12:55:18;;;;;;;6.43;4.60;;;13.70;99.90;;;;;;5013171;28;20558;-88
2022/04/30 12:57:46;;;;;;;6.93;5.20;;;13.90;99.90;;;;;;5008216;28;20932;-86
2022/04/30 13:00:15;;;;;;;5.77;3.20;;;13.90;99.90;;;;;;5007421;28;20434;-86
2022/04/30 13:02:43;;;;;;;5.80;3.70;;;13.40;99.90;;;;;;5006335;28;20518;-88
2022/04/30 13:05:11;;;;;;;5.97;4.23;;;13.30;99.90;;;;;;5006989;28;20434;-87
2022/04/30 13:07:42;;;;;;;6.80;4.90;;;13.30;99.90;;;;;;5008119;28;20422;-87
2022/04/30 13:15:41;;;;;;;9.00;5.87;;;13.10;99.90;;;;;;4999691;28;20418;-87
2022/04/30 13:18:09;;;;;;;9.13;6.73;;;13.10;99.90;;;;;;5004383;28;20522;-87
2022/04/30 13:20:36;;;;;;;6.57;4.70;;;13.20;99.90;;;;;;5000016;28;20552;-86
2022/04/30 13:23:05;;;;;;;7.80;5.27;;;13.30;99.90;;;;;;5001289;28;20483;-88
2022/04/30 13:25:32;;;;;;;11.23;8.40;;;13.10;99.90;;;;;;5000525;28;20487;-87
2022/04/30 13:28:00;;;;;;;10.73;7.47;;;13.10;99.90;;;;;;5002563;28;20454;-88
2022/04/30 13:30:33;;;;;;;12.93;9.53;;;13.30;99.90;;;;;;5002949;28;20549;-86
2022/04/30 13:33:04;;;;;;;11.90;9.80;;;13.30;99.90;;;;;;5003870;28;20486;-86
2022/04/30 13:35:34;;;;;;;14.73;10.57;;;13.50;99.90;;;;;;5004526;28;20447;-88
2022/04/30 13:38:01;;;;;;;12.83;9.90;;;13.30;99.90;;;;;;5005147;28;20417;-87
2022/04/30 13:40:30;;;;;;;12.33;9.03;;;13.40;99.90;;;;;;5004682;28;20501;-88
2022/04/30 13:42:57;;;;;;;14.20;11.37;;;13.20;99.90;;;;;;5005481;28;20455;-88
2022/04/30 13:45:27;;;;;;;12.77;11.40;;;13.20;99.90;;;;;;5005882;28;20483;-87